Time;durP1;ratioP1;P1;durP2;ratioP2;P2;SDS_P1;SDS_P2;PMS_P1;PMS_P2;Temp;Humidity;BMP_temperature;BMP_pressure;BME280_temperature;BME280_humidity;BME280_pressure;Samples;Min_cycle;Max_cycle;Signal;HPM_P1;HPM_P2
2021/09/02 00:02:00;;;;;;;8.73;5.63;;;;;;;8.04;99.46;96388.41;5026040;28;20041;-75
2021/09/02 00:04:26;;;;;;;10.82;5.75;;;;;;;8.19;98.85;96387.94;5026685;28;20204;-74
2021/09/02 00:06:52;;;;;;;9.05;5.50;;;;;;;8.10;98.29;96384.88;5027711;28;20073;-74
2021/09/02 00:09:17;;;;;;;10.48;5.60;;;;;;;7.94;100.00;96382.94;5024127;28;20030;-74
2021/09/02 00:11:43;;;;;;;11.32;5.50;;;;;;;7.89;99.33;96375.00;5010676;28;20423;-74
2021/09/02 00:14:09;;;;;;;9.50;5.30;;;;;;;7.91;99.17;96375.56;5021405;28;20052;-73
2021/09/02 00:16:34;;;;;;;9.45;5.32;;;;;;;7.95;99.02;96366.19;5028095;28;20041;-75
2021/09/02 00:18:59;;;;;;;10.88;5.60;;;;;;;7.98;98.27;96365.72;5017035;28;20049;-75
2021/09/02 00:21:25;;;;;;;11.60;5.70;;;;;;;7.82;98.70;96361.22;5009349;28;20112;-74
2021/09/02 00:23:51;;;;;;;9.32;5.50;;;;;;;7.86;98.68;96355.28;5025037;28;20042;-75
2021/09/02 00:26:16;;;;;;;11.32;5.50;;;;;;;8.03;97.50;96368.47;5029371;28;20045;-75
2021/09/02 00:28:42;;;;;;;9.50;5.30;;;;;;;7.89;98.64;96372.38;5027797;28;20068;-74
2021/09/02 00:31:07;;;;;;;8.25;5.05;;;;;;;7.60;99.90;96364.41;5012887;28;20038;-74
2021/09/02 00:33:33;;;;;;;11.07;5.53;;;;;;;7.68;99.30;96366.69;5016423;28;20129;-75
2021/09/02 00:35:59;;;;;;;10.45;5.30;;;;;;;7.48;99.31;96355.78;5029395;28;20799;-75
2021/09/02 00:38:25;;;;;;;10.63;5.43;;;;;;;7.44;100.00;96356.25;5026860;28;20049;-75
2021/09/02 00:40:50;;;;;;;10.15;6.00;;;;;;;7.35;100.00;96362.81;5017003;28;20041;-75
2021/09/02 00:43:16;;;;;;;10.48;5.20;;;;;;;7.65;99.20;96361.91;5027534;28;20118;-75
2021/09/02 00:45:41;;;;;;;11.25;5.80;;;;;;;7.66;98.10;96355.66;5026925;28;20064;-73
2021/09/02 00:48:07;;;;;;;8.02;5.10;;;;;;;7.47;99.34;96360.22;5024288;28;20514;-75
2021/09/02 00:50:33;;;;;;;9.32;5.07;;;;;;;7.48;98.94;96353.94;5028284;28;20045;-75
2021/09/02 00:53:02;;;;;;;9.90;5.63;;;;;;;7.53;98.85;96358.50;5024287;28;20503;-74
2021/09/02 00:55:32;;;;;;;10.65;5.18;;;;;;;7.40;98.97;96359.53;5028072;28;20098;-74
2021/09/02 00:57:59;;;;;;;9.75;5.43;;;;;;;7.55;98.58;96359.88;5028702;28;20048;-75
2021/09/02 01:00:25;;;;;;;9.32;5.07;;;;;;;7.57;98.19;96349.97;5028289;28;20072;-75
2021/09/02 01:02:50;;;;;;;9.32;5.05;;;;;;;7.45;98.71;96346.53;5019237;28;20085;-73
2021/09/02 01:05:21;;;;;;;13.50;5.70;;;;;;;7.39;99.27;96348.25;5019312;28;20710;-74
2021/09/02 01:07:47;;;;;;;9.77;5.28;;;;;;;7.40;99.20;96349.84;5008967;28;20519;-74
2021/09/02 01:10:13;;;;;;;9.73;5.15;;;;;;;7.37;98.91;96350.31;5021230;28;20042;-74
2021/09/02 01:12:48;;;;;;;8.63;5.38;;;;;;;7.44;98.62;96361.47;5009104;28;20172;-75
2021/09/02 01:15:16;;;;;;;;;;;;;;;7.38;99.56;96351.09;5026574;28;20065;-75
2021/09/02 01:17:48;;;;;;;8.65;4.85;;;;;;;7.44;98.30;96351.00;5027535;28;19947;-74
2021/09/02 01:20:16;;;;;;;12.43;5.68;;;;;;;7.45;98.42;96351.78;5025287;28;20084;-74
2021/09/02 01:22:42;;;;;;;11.60;5.78;;;;;;;7.32;98.27;96358.03;5026864;28;20072;-74
2021/09/02 01:25:11;;;;;;;10.07;5.85;;;;;;;7.27;99.43;96352.72;5020047;28;20453;-74
2021/09/02 01:27:36;;;;;;;10.23;5.45;;;;;;;7.27;99.36;96350.09;5026258;28;20125;-74
2021/09/02 01:30:09;;;;;;;10.43;5.07;;;;;;;7.21;99.36;96345.75;5019989;28;20144;-74
2021/09/02 01:32:36;;;;;;;10.05;5.78;;;;;;;7.16;99.46;96343.81;5023180;28;20576;-74
2021/09/02 01:35:04;;;;;;;9.70;5.35;;;;;;;7.13;99.26;96343.47;5028191;28;20049;-73
2021/09/02 01:37:45;;;;;;;8.73;5.32;;;;;;;7.10;99.76;96340.28;5025703;28;20078;-74
2021/09/02 01:40:16;;;;;;;8.90;5.22;;;;;;;7.16;99.34;96343.03;5022140;28;20045;-74
2021/09/02 01:42:43;;;;;;;9.25;5.07;;;;;;;7.17;99.03;96344.59;5011383;28;20077;-74
2021/09/02 01:45:09;;;;;;;8.10;4.88;;;;;;;7.19;98.98;96337.31;5019826;28;20088;-74
2021/09/02 01:47:35;;;;;;;8.65;4.97;;;;;;;7.08;98.70;96331.88;5016818;28;20037;-74
2021/09/02 01:50:08;;;;;;;10.95;4.80;;;;;;;7.21;98.10;96335.28;5025344;28;20072;-75
2021/09/02 01:52:34;;;;;;;9.50;5.20;;;;;;;7.21;97.66;96337.88;5023640;28;20038;-73
2021/09/02 01:55:01;;;;;;;8.88;5.07;;;;;;;7.21;97.31;96324.78;5027759;28;20565;-73
2021/09/02 01:57:26;;;;;;;10.50;5.35;;;;;;;7.19;97.64;96321.63;5028507;28;20040;-75
2021/09/02 01:59:52;;;;;;;7.72;5.10;;;;;;;7.04;97.46;96335.13;5019259;28;20164;-73
2021/09/02 02:02:17;;;;;;;10.60;5.35;;;;;;;6.85;98.78;96331.81;5014742;28;20038;-74
2021/09/02 02:04:43;;;;;;;9.30;5.38;;;;;;;6.82;99.36;96324.41;5032116;28;20067;-74
2021/09/02 02:07:08;;;;;;;7.90;5.20;;;;;;;6.78;98.81;96326.72;5030965;28;20041;-75
2021/09/02 02:09:34;;;;;;;10.93;5.03;;;;;;;6.80;99.76;96323.88;5027626;28;20045;-74
2021/09/02 02:11:59;;;;;;;9.20;5.25;;;;;;;6.79;98.86;96311.78;5014675;28;20056;-74
2021/09/02 02:14:25;;;;;;;9.52;5.07;;;;;;;6.84;98.52;96312.72;5030762;28;20100;-74
2021/09/02 02:16:50;;;;;;;9.98;5.60;;;;;;;6.84;98.37;96317.13;5031634;28;20046;-74
2021/09/02 02:19:16;;;;;;;10.43;5.63;;;;;;;6.66;98.78;96318.03;5020834;28;20038;-75
2021/09/02 02:21:41;;;;;;;8.82;5.22;;;;;;;6.52;98.60;96318.22;5011522;28;20669;-74
2021/09/02 02:24:07;;;;;;;9.63;5.38;;;;;;;6.70;98.42;96319.97;5030084;28;20129;-74
2021/09/02 02:26:33;;;;;;;8.20;4.95;;;;;;;6.75;97.91;96316.66;5031300;28;20045;-74
2021/09/02 02:28:58;;;;;;;10.65;5.75;;;;;;;6.75;98.13;96322.72;5022205;28;20053;-75
2021/09/02 02:31:24;;;;;;;7.45;4.72;;;;;;;6.67;97.88;96309.94;5013096;28;20042;-75
2021/09/02 02:33:49;;;;;;;7.63;4.95;;;;;;;6.62;97.88;96309.81;5026407;28;20423;-75
2021/09/02 02:36:15;;;;;;;9.82;4.97;;;;;;;6.57;97.91;96314.94;5031489;28;20422;-73
2021/09/02 02:38:40;;;;;;;8.13;4.85;;;;;;;6.50;97.96;96314.22;5030067;28;20324;-75
2021/09/02 02:41:06;;;;;;;13.00;4.95;;;;;;;6.39;98.24;96313.16;5021946;28;20092;-76
2021/09/02 02:43:31;;;;;;;8.60;4.95;;;;;;;6.40;97.96;96310.31;5011282;28;20037;-73
2021/09/02 02:45:58;;;;;;;10.02;4.63;;;;;;;6.38;98.37;96312.38;5030433;28;20124;-74
2021/09/02 02:48:24;;;;;;;8.80;5.10;;;;;;;6.34;98.72;96306.00;5030052;28;20045;-73
2021/09/02 02:50:49;;;;;;;8.18;5.20;;;;;;;6.34;98.87;96308.59;5027698;28;20499;-74
2021/09/02 02:53:15;;;;;;;8.57;5.03;;;;;;;6.26;98.51;96308.91;5027749;28;20041;-74
2021/09/02 02:55:41;;;;;;;7.78;4.63;;;;;;;6.38;98.46;96307.16;5031027;28;20045;-76
2021/09/02 02:58:06;;;;;;;7.97;4.57;;;;;;;6.30;98.40;96310.06;5029823;28;20046;-75
2021/09/02 03:00:32;;;;;;;9.10;5.03;;;;;;;6.38;97.65;96317.59;5024320;28;20069;-74
2021/09/02 03:02:57;;;;;;;10.20;4.63;;;;;;;6.27;96.43;96305.28;5017725;28;20037;-75
2021/09/02 03:05:22;;;;;;;10.90;4.90;;;;;;;6.07;98.20;96311.56;5030775;28;20118;-75
2021/09/02 03:07:48;;;;;;;7.07;4.47;;;;;;;6.20;98.25;96309.81;5028960;28;20124;-75
2021/09/02 03:10:14;;;;;;;9.15;5.03;;;;;;;6.07;98.79;96321.22;5022450;28;20120;-74
2021/09/02 03:12:39;;;;;;;9.13;4.90;;;;;;;6.13;98.82;96311.72;5029705;28;20046;-74
2021/09/02 03:15:06;;;;;;;9.68;4.90;;;;;;;6.12;98.35;96323.16;5029329;28;20472;-75
2021/09/02 03:17:32;;;;;;;10.05;4.97;;;;;;;6.10;98.17;96320.00;5027334;28;20069;-76
2021/09/02 03:19:57;;;;;;;7.78;4.68;;;;;;;6.01;98.48;96322.91;5010136;28;20325;-75
2021/09/02 03:22:23;;;;;;;8.15;4.88;;;;;;;6.11;98.45;96316.38;5025912;28;20038;-75
2021/09/02 03:24:48;;;;;;;8.20;5.03;;;;;;;6.06;98.22;96320.44;5017827;28;20052;-73
2021/09/02 03:27:14;;;;;;;8.82;5.20;;;;;;;6.09;98.48;96310.56;5036531;28;20037;-74
2021/09/02 03:29:39;;;;;;;7.55;4.50;;;;;;;6.10;98.27;96320.00;5032118;28;20049;-74
2021/09/02 03:32:05;;;;;;;9.18;4.78;;;;;;;5.94;98.19;96316.94;5022148;28;20046;-74
2021/09/02 03:34:30;;;;;;;8.43;5.00;;;;;;;5.98;98.48;96320.72;5009928;28;20048;-75
2021/09/02 03:36:56;;;;;;;8.10;5.18;;;;;;;5.89;98.51;96325.44;5029413;28;20842;-75
2021/09/02 03:39:22;;;;;;;9.82;4.70;;;;;;;5.92;98.76;96324.22;5028680;28;20041;-75
2021/09/02 03:41:47;;;;;;;9.50;5.75;;;;;;;5.90;99.02;96326.22;5029587;28;20098;-75
2021/09/02 03:44:13;;;;;;;7.78;4.85;;;;;;;5.92;98.29;96318.97;5028318;28;20499;-75
2021/09/02 03:46:39;;;;;;;7.43;4.97;;;;;;;5.98;97.85;96333.81;5030169;28;20049;-75
2021/09/02 03:49:04;;;;;;;6.32;4.45;;;;;;;5.96;97.26;96340.22;5019998;28;20487;-75
2021/09/02 03:51:30;;;;;;;7.82;4.70;;;;;;;5.90;97.56;96326.22;5029648;28;20041;-75
2021/09/02 03:53:56;;;;;;;7.53;4.90;;;;;;;5.85;98.09;96333.94;5017876;28;20046;-73
2021/09/02 03:56:22;;;;;;;7.78;4.55;;;;;;;5.75;98.07;96333.63;5020777;28;20050;-74
2021/09/02 03:58:47;;;;;;;8.38;4.80;;;;;;;5.65;98.45;96337.56;5025014;28;20041;-76
2021/09/02 04:01:13;;;;;;;8.93;5.07;;;;;;;5.75;98.20;96331.81;5017443;28;20034;-75
2021/09/02 04:03:38;;;;;;;7.82;4.93;;;;;;;5.87;98.00;96334.50;5014895;28;20466;-74
2021/09/02 04:06:04;;;;;;;8.95;4.60;;;;;;;5.84;97.93;96321.88;5029711;28;20119;-74
2021/09/02 04:08:30;;;;;;;10.50;4.88;;;;;;;5.77;97.36;96321.16;5027467;28;20553;-75
2021/09/02 04:10:55;;;;;;;8.52;4.57;;;;;;;5.70;97.90;96327.25;5017554;28;20050;-75
2021/09/02 04:13:21;;;;;;;9.85;4.53;;;;;;;5.62;98.11;96330.16;5028707;28;20088;-74
2021/09/02 04:15:46;;;;;;;9.18;5.03;;;;;;;5.47;99.13;96334.94;5029889;28;20045;-74
2021/09/02 04:18:12;;;;;;;8.27;4.75;;;;;;;5.61;98.79;96341.59;5013656;28;20523;-73
2021/09/02 04:20:38;;;;;;;8.98;4.95;;;;;;;5.62;97.94;96337.19;5028945;28;20052;-75
2021/09/02 04:23:03;;;;;;;10.38;4.80;;;;;;;5.41;99.18;96338.41;5017335;28;20045;-75
2021/09/02 04:25:29;;;;;;;8.20;4.60;;;;;;;5.66;98.26;96333.13;5025812;28;20049;-75
2021/09/02 04:27:55;;;;;;;9.90;5.32;;;;;;;5.77;97.82;96334.22;5028411;28;20045;-74
2021/09/02 04:30:21;;;;;;;9.10;4.93;;;;;;;5.56;97.97;96336.25;5027466;28;20414;-75
2021/09/02 04:32:46;;;;;;;9.85;5.43;;;;;;;5.55;98.88;96342.47;5025088;28;20741;-74
2021/09/02 04:35:13;;;;;;;8.38;4.78;;;;;;;5.59;98.19;96341.03;5011554;28;20053;-75
2021/09/02 04:37:40;;;;;;;11.00;5.05;;;;;;;5.52;98.69;96342.91;5028509;28;20041;-75
2021/09/02 04:40:07;;;;;;;8.68;5.10;;;;;;;5.58;98.66;96342.03;5018326;28;20037;-74
2021/09/02 04:42:33;;;;;;;8.68;5.13;;;;;;;5.43;99.42;96341.59;5028796;28;20049;-75
2021/09/02 04:45:00;;;;;;;10.60;5.47;;;;;;;5.56;98.25;96336.25;5029234;28;20046;-75
2021/09/02 04:47:28;;;;;;;9.43;4.85;;;;;;;5.56;99.16;96331.03;5025056;28;20410;-74
2021/09/02 04:49:55;;;;;;;8.65;4.90;;;;;;;5.56;99.07;96331.03;5022025;28;20057;-75
2021/09/02 04:52:21;;;;;;;12.25;5.43;;;;;;;5.48;99.05;96336.53;5022499;28;20049;-74
2021/09/02 04:54:46;;;;;;;10.70;5.15;;;;;;;5.42;99.87;96329.56;5027845;28;20037;-75
2021/09/02 04:57:12;;;;;;;8.80;5.18;;;;;;;5.47;99.54;96327.09;5028987;28;20121;-76
2021/09/02 04:59:37;;;;;;;9.65;5.15;;;;;;;5.45;99.50;96329.13;5027711;28;20041;-75
2021/09/02 05:02:03;;;;;;;12.25;5.78;;;;;;;5.42;100.00;96329.56;5008088;28;20046;-75
2021/09/02 05:04:29;;;;;;;10.32;5.20;;;;;;;5.40;100.00;96334.19;5009171;28;20522;-75
2021/09/02 05:06:54;;;;;;;8.88;5.30;;;;;;;5.45;100.00;96334.34;5017605;28;20038;-74
2021/09/02 05:09:20;;;;;;;10.02;6.25;;;;;;;5.46;100.00;96331.53;5019714;28;20111;-74
2021/09/02 05:11:45;;;;;;;11.90;6.30;;;;;;;5.65;100.00;96345.38;5024232;28;20407;-75
2021/09/02 05:14:11;;;;;;;10.07;5.82;;;;;;;5.70;100.00;96337.72;5002548;28;20046;-75
2021/09/02 05:16:36;;;;;;;13.20;6.13;;;;;;;5.92;100.00;96333.84;5028616;28;20076;-74
2021/09/02 05:19:02;;;;;;;11.98;6.25;;;;;;;6.04;100.00;96338.13;5022553;28;20053;-74
2021/09/02 05:21:28;;;;;;;10.80;6.32;;;;;;;6.09;100.00;96347.94;5028227;28;20049;-75
2021/09/02 05:23:53;;;;;;;10.43;6.20;;;;;;;6.12;100.00;96349.31;5018279;28;20050;-75
2021/09/02 05:26:19;;;;;;;10.20;6.05;;;;;;;6.16;100.00;96351.28;5010065;28;20038;-78
2021/09/02 05:28:45;;;;;;;13.23;6.70;;;;;;;6.39;100.00;96350.59;5020192;28;20041;-76
2021/09/02 05:31:10;;;;;;;12.20;6.18;;;;;;;6.36;100.00;96345.78;5022483;28;20072;-74
2021/09/02 05:33:36;;;;;;;13.50;7.03;;;;;;;6.32;100.00;96349.06;5017480;28;20064;-75
2021/09/02 05:36:02;;;;;;;13.38;7.55;;;;;;;6.45;100.00;96338.44;5027191;28;20103;-74
2021/09/02 05:38:27;;;;;;;13.23;7.68;;;;;;;6.61;100.00;96341.44;5008170;28;20095;-74
2021/09/02 05:40:53;;;;;;;17.50;8.02;;;;;;;6.81;100.00;96335.91;5027488;28;20075;-73
2021/09/02 05:43:18;;;;;;;13.50;7.80;;;;;;;6.81;100.00;96341.13;5025661;28;20048;-71
2021/09/02 05:45:44;;;;;;;16.33;8.02;;;;;;;6.94;100.00;96340.94;5027702;28;20053;-72
2021/09/02 05:48:09;;;;;;;14.63;8.25;;;;;;;6.94;100.00;96340.94;5020051;28;20050;-74
2021/09/02 05:50:35;;;;;;;15.60;8.40;;;;;;;7.01;100.00;96340.81;5024769;28;20441;-73
2021/09/02 05:53:01;;;;;;;14.95;8.13;;;;;;;7.08;100.00;96337.09;5025734;28;20410;-74
2021/09/02 05:55:27;;;;;;;14.45;8.40;;;;;;;7.06;100.00;96336.50;5024560;28;20050;-74
2021/09/02 05:57:52;;;;;;;18.33;9.80;;;;;;;7.23;100.00;96341.09;5022149;28;20048;-74
2021/09/02 06:00:18;;;;;;;17.73;8.80;;;;;;;7.29;100.00;96342.78;5006681;28;20471;-74
2021/09/02 06:02:43;;;;;;;22.20;11.65;;;;;;;7.59;100.00;96331.41;5023907;28;20122;-74
2021/09/02 06:05:09;;;;;;;19.27;10.60;;;;;;;7.80;100.00;96337.84;5023078;28;20049;-74
2021/09/02 06:07:35;;;;;;;18.75;10.65;;;;;;;8.00;100.00;96345.31;5028672;28;20053;-74
2021/09/02 06:10:01;;;;;;;16.85;10.38;;;;;;;8.01;100.00;96344.31;5025382;28;20045;-74
2021/09/02 06:12:26;;;;;;;18.08;10.75;;;;;;;8.07;100.00;96343.38;5025980;28;20414;-74
2021/09/02 06:14:51;;;;;;;20.52;11.20;;;;;;;8.20;100.00;96346.75;5026099;28;20055;-73
2021/09/02 06:17:17;;;;;;;21.55;10.27;;;;;;;8.15;100.00;96344.84;5027109;28;20051;-74
2021/09/02 06:19:42;;;;;;;17.00;9.60;;;;;;;8.08;100.00;96344.97;5024351;28;20046;-73
2021/09/02 06:22:08;;;;;;;15.25;9.48;;;;;;;8.05;100.00;96350.69;5025057;28;20041;-73
2021/09/02 06:24:34;;;;;;;17.23;9.13;;;;;;;8.03;100.00;96337.03;5026402;28;20041;-80
2021/09/02 06:26:59;;;;;;;19.58;10.30;;;;;;;8.10;100.00;96348.16;5028316;28;20064;-79
2021/09/02 06:29:25;;;;;;;19.35;11.40;;;;;;;8.19;100.00;96350.41;5027026;28;20045;-78
2021/09/02 06:31:51;;;;;;;16.80;9.68;;;;;;;8.28;100.00;96354.25;5025248;28;20506;-79
2021/09/02 06:34:17;;;;;;;17.25;9.63;;;;;;;8.32;100.00;96356.19;5027681;28;20045;-78
2021/09/02 06:36:42;;;;;;;21.63;12.10;;;;;;;8.81;100.00;96342.63;5009523;28;20041;-79
2021/09/02 06:39:09;;;;;;;19.75;11.35;;;;;;;8.84;100.00;96351.88;5026875;28;20468;-79
2021/09/02 06:41:35;;;;;;;17.40;10.73;;;;;;;8.89;100.00;96351.16;5022501;28;20092;-79
2021/09/02 06:44:01;;;;;;;17.20;10.20;;;;;;;8.80;100.00;96343.66;5022800;28;20049;-82
2021/09/02 06:46:26;;;;;;;20.42;11.35;;;;;;;9.05;100.00;96347.75;5029166;28;20131;-79
2021/09/02 06:48:53;;;;;;;20.50;10.98;;;;;;;9.14;100.00;96346.31;5032073;28;20049;-78
2021/09/02 06:51:19;;;;;;;18.50;11.02;;;;;;;9.21;100.00;96340.09;5013075;28;20494;-79
2021/09/02 06:53:44;;;;;;;19.88;10.82;;;;;;;9.34;100.00;96350.28;5029151;28;20041;-78
2021/09/02 06:56:10;;;;;;;19.27;11.75;;;;;;;9.57;100.00;96348.50;5027695;28;20111;-78
2021/09/02 06:58:35;;;;;;;22.40;11.38;;;;;;;10.25;100.00;96337.78;5005450;28;20038;-80
2021/09/02 07:01:01;;;;;;;20.02;10.73;;;;;;;10.42;100.00;96343.78;5021076;28;20046;-84
2021/09/02 07:03:26;;;;;;;17.92;10.63;;;;;;;10.61;100.00;96356.59;5008365;28;20067;-76
2021/09/02 07:05:52;;;;;;;16.65;10.35;;;;;;;10.71;100.00;96356.69;5011730;28;20132;-82
2021/09/02 07:08:17;;;;;;;18.23;10.15;;;;;;;11.01;99.62;96350.91;5019836;28;20044;-80
2021/09/02 07:10:43;;;;;;;15.98;9.13;;;;;;;11.27;98.20;96354.50;5018184;28;20412;-74
2021/09/02 07:13:08;;;;;;;15.48;9.40;;;;;;;11.03;98.59;96348.00;5024429;28;20571;-74
2021/09/02 07:15:34;;;;;;;15.60;9.90;;;;;;;11.03;99.30;96358.53;5034107;28;20072;-75
2021/09/02 07:18:00;;;;;;;15.50;9.43;;;;;;;10.85;100.00;96352.59;5012660;28;20049;-75
2021/09/02 07:20:25;;;;;;;14.55;9.30;;;;;;;10.86;100.00;96359.47;5025102;28;20069;-74
2021/09/02 07:22:51;;;;;;;14.55;9.30;;;;;;;10.92;99.73;96363.72;5022503;28;20241;-74
2021/09/02 07:25:16;;;;;;;15.98;9.25;;;;;;;10.89;100.00;96361.59;5031017;28;20049;-76
2021/09/02 07:27:42;;;;;;;14.27;8.63;;;;;;;10.94;100.00;96360.84;5011696;28;20511;-75
2021/09/02 07:30:08;;;;;;;13.93;8.30;;;;;;;11.01;100.00;96371.19;5005571;28;20069;-75
2021/09/02 07:32:34;;;;;;;14.27;8.27;;;;;;;11.61;98.25;96364.75;5020316;28;20050;-75
2021/09/02 07:34:59;;;;;;;14.32;8.07;;;;;;;11.98;95.68;96364.97;5033358;28;20053;-76
2021/09/02 07:37:25;;;;;;;15.02;7.85;;;;;;;11.86;95.74;96360.69;5030776;28;20717;-74
2021/09/02 07:39:50;;;;;;;12.80;8.23;;;;;;;11.72;98.15;96375.38;5025637;28;20037;-76
2021/09/02 07:42:16;;;;;;;13.13;7.97;;;;;;;12.01;95.93;96372.38;5030697;28;20116;-75
2021/09/02 07:44:42;;;;;;;14.15;7.50;;;;;;;12.18;93.32;96372.97;5030135;28;20121;-75
2021/09/02 07:47:07;;;;;;;14.20;8.07;;;;;;;11.96;95.41;96376.56;5030446;28;20092;-75
2021/09/02 07:49:33;;;;;;;13.98;8.65;;;;;;;11.81;96.66;96379.13;5017473;28;20643;-75
2021/09/02 07:51:58;;;;;;;13.15;7.90;;;;;;;11.76;97.37;96379.88;5017910;28;20049;-74
2021/09/02 07:54:24;;;;;;;12.82;7.53;;;;;;;11.98;96.60;96373.69;5021807;28;20123;-75
2021/09/02 07:56:49;;;;;;;11.48;7.70;;;;;;;12.20;94.86;96376.16;5030881;28;20064;-76
2021/09/02 07:59:16;;;;;;;12.98;7.60;;;;;;;12.03;96.44;96381.63;5029871;28;20112;-74
2021/09/02 08:01:41;;;;;;;13.32;7.10;;;;;;;12.59;92.99;96383.69;5027113;28;20596;-75
2021/09/02 08:04:07;;;;;;;11.63;6.60;;;;;;;12.90;90.31;96381.09;5027482;28;20041;-73
2021/09/02 08:06:32;;;;;;;10.15;6.53;;;;;;;12.77;91.94;96378.97;5023721;28;20068;-74
2021/09/02 08:08:58;;;;;;;11.90;6.78;;;;;;;12.57;93.73;96393.72;5028437;28;20197;-75
2021/09/02 08:11:27;;;;;;;10.20;6.13;;;;;;;12.64;92.04;96391.63;5006995;28;20042;-74
2021/09/02 08:13:54;;;;;;;9.23;6.13;;;;;;;12.65;89.33;96387.91;5029324;28;20057;-75
2021/09/02 08:16:22;;;;;;;11.95;6.38;;;;;;;12.74;88.11;96380.28;5029240;28;20045;-76
2021/09/02 08:18:47;;;;;;;10.73;6.00;;;;;;;12.87;87.74;96378.97;5034317;28;20048;-74
2021/09/02 08:21:14;;;;;;;9.63;5.55;;;;;;;13.03;87.04;96381.63;5023639;28;20045;-75
2021/09/02 08:23:39;;;;;;;11.38;6.00;;;;;;;13.19;84.52;96385.88;5027566;28;20089;-73
2021/09/02 08:26:05;;;;;;;10.15;5.75;;;;;;;13.08;85.68;96386.94;5023474;28;20049;-76
2021/09/02 08:28:31;;;;;;;11.90;5.45;;;;;;;13.34;83.38;96383.25;5029551;28;20041;-75
2021/09/02 08:30:56;;;;;;;11.90;6.07;;;;;;;13.59;83.73;96384.31;5028473;28;20056;-73
2021/09/02 08:33:23;;;;;;;14.02;5.68;;;;;;;14.02;82.47;96382.09;5025945;28;20049;-74
2021/09/02 08:35:51;;;;;;;9.57;5.38;;;;;;;14.12;82.30;96380.47;5028026;28;20099;-74
2021/09/02 08:38:17;;;;;;;9.35;5.65;;;;;;;14.15;81.30;96380.72;5026589;28;20533;-75
2021/09/02 08:40:43;;;;;;;9.75;5.95;;;;;;;13.88;84.08;96386.38;5026491;28;20045;-75
2021/09/02 08:43:09;;;;;;;9.75;5.57;;;;;;;13.86;83.65;96383.19;5028723;28;20064;-75
2021/09/02 08:45:35;;;;;;;8.32;5.82;;;;;;;13.88;84.71;96381.06;5029330;28;20487;-75
2021/09/02 08:48:01;;;;;;;11.40;5.80;;;;;;;13.76;86.60;96384.00;5025486;28;20136;-76
2021/09/02 08:50:30;;;;;;;10.88;6.03;;;;;;;13.81;83.99;96381.34;5009000;28;20045;-78
2021/09/02 08:52:55;;;;;;;10.15;5.88;;;;;;;13.96;83.94;96377.84;5019790;28;20076;-76
2021/09/02 08:55:22;;;;;;;8.77;5.75;;;;;;;14.32;78.92;96380.41;5026233;28;20069;-75
2021/09/02 08:57:51;;;;;;;9.38;5.45;;;;;;;14.35;80.77;96379.84;5024817;28;20037;-76
2021/09/02 09:00:17;;;;;;;11.60;5.85;;;;;;;14.26;81.22;96378.81;5010559;28;20217;-76
2021/09/02 09:02:45;;;;;;;8.40;5.35;;;;;;;14.37;82.94;96374.28;5026984;28;20049;-76
2021/09/02 09:05:13;;;;;;;11.45;5.75;;;;;;;14.37;80.67;96379.56;5043732;28;20092;-75
2021/09/02 09:07:45;;;;;;;11.98;5.10;;;;;;;14.55;79.18;96378.16;5009150;28;20160;-74
2021/09/02 09:10:19;;;;;;;10.48;6.15;;;;;;;14.89;77.82;96383.53;5023904;28;20426;-74
2021/09/02 09:12:46;;;;;;;;;;;;;;;15.09;77.18;96383.69;5015852;28;20040;-74
2021/09/02 09:15:36;;;;;;;9.23;5.60;;;;;;;15.35;76.38;96379.75;5011396;28;20317;-75
2021/09/02 09:18:22;;;;;;;10.48;5.30;;;;;;;15.14;74.19;96378.34;5028510;28;20558;-75
2021/09/02 09:21:09;;;;;;;9.45;5.22;;;;;;;15.73;73.23;96377.31;5008189;28;20044;-75
2021/09/02 09:23:57;;;;;;;9.15;5.32;;;;;;;15.86;73.57;96375.88;5008654;28;20120;-75
2021/09/02 09:26:24;;;;;;;8.50;5.30;;;;;;;15.90;74.04;96373.44;5014698;28;20038;-80
2021/09/02 09:28:50;;;;;;;9.98;5.65;;;;;;;15.91;74.18;96375.03;5025792;28;20521;-79
2021/09/02 09:31:33;;;;;;;9.20;5.32;;;;;;;16.16;72.07;96381.94;5027956;28;20045;-74
2021/09/02 09:34:02;;;;;;;10.82;5.47;;;;;;;15.90;73.40;96379.56;5008334;28;20514;-75
2021/09/02 09:36:30;;;;;;;10.73;5.00;;;;;;;16.00;72.35;96381.28;5025344;28;20098;-74
2021/09/02 09:39:17;;;;;;;10.30;5.32;;;;;;;16.00;71.99;96378.63;5019989;28;20041;-76
2021/09/02 09:41:49;;;;;;;12.73;5.20;;;;;;;15.89;71.42;96382.50;5026297;28;20042;-75
2021/09/02 09:44:25;;;;;;;8.68;5.30;;;;;;;16.09;72.31;96376.94;5008580;28;20076;-75
2021/09/02 09:47:27;;;;;;;10.95;5.50;;;;;;;16.36;70.64;96364.94;5021310;28;20060;-74
2021/09/02 09:49:56;;;;;;;9.95;5.07;;;;;;;16.41;69.52;96361.44;4946038;28;20059;-75
2021/09/02 09:52:23;;;;;;;10.63;5.10;;;;;;;16.76;68.01;96362.00;5006353;28;20054;-76
2021/09/02 09:54:49;;;;;;;8.25;4.88;;;;;;;16.64;68.64;96359.78;5008593;28;20041;-75
2021/09/02 09:57:15;;;;;;;8.38;5.15;;;;;;;16.66;69.59;96352.31;5024347;28;20041;-76
2021/09/02 09:59:42;;;;;;;10.85;5.30;;;;;;;16.73;69.15;96347.44;5019411;28;20049;-75
2021/09/02 10:02:08;;;;;;;8.82;5.43;;;;;;;17.03;67.51;96344.66;5022189;28;20598;-75
2021/09/02 10:04:35;;;;;;;11.63;5.25;;;;;;;17.14;68.70;96336.22;5026306;28;20048;-75
2021/09/02 10:07:05;;;;;;;9.13;5.00;;;;;;;17.67;68.08;96347.56;5025759;28;20073;-75
2021/09/02 10:09:34;;;;;;;8.35;4.85;;;;;;;17.84;64.56;96342.44;5021752;28;20147;-75
2021/09/02 10:12:02;;;;;;;8.35;4.80;;;;;;;17.83;64.09;96343.53;5010509;28;20119;-76
2021/09/02 10:14:28;;;;;;;9.23;5.10;;;;;;;17.94;62.50;96341.50;5005848;28;20048;-75
2021/09/02 10:16:53;;;;;;;10.90;4.88;;;;;;;18.11;62.61;96340.88;5024968;28;20065;-74
2021/09/02 10:19:20;;;;;;;9.20;4.90;;;;;;;18.59;63.92;96349.47;5015419;28;20045;-75
2021/09/02 10:21:48;;;;;;;7.22;4.70;;;;;;;19.04;62.26;96334.34;5022247;28;20053;-74
2021/09/02 10:24:29;;;;;;;7.72;4.63;;;;;;;19.22;59.82;96329.13;5024406;28;20821;-74
2021/09/02 10:26:54;;;;;;;6.88;4.78;;;;;;;19.20;58.38;96337.44;5026036;28;20454;-74
2021/09/02 10:29:36;;;;;;;8.07;4.43;;;;;;;20.15;59.21;96337.41;5028346;28;20049;-75
2021/09/02 10:32:24;;;;;;;7.80;4.40;;;;;;;20.29;57.80;96337.31;5016486;28;20061;-73
2021/09/02 10:35:12;;;;;;;11.05;4.57;;;;;;;20.25;56.14;96337.13;5029373;28;20104;-74
2021/09/02 10:37:41;;;;;;;6.30;4.38;;;;;;;20.68;56.26;96333.75;5025521;28;20115;-74
2021/09/02 10:40:16;;;;;;;7.65;4.70;;;;;;;21.28;55.75;96329.44;5011749;28;20502;-74
2021/09/02 10:42:46;;;;;;;6.50;4.50;;;;;;;21.92;52.29;96330.53;5030876;28;20042;-74
2021/09/02 10:45:27;;;;;;;9.98;5.03;;;;;;;21.91;53.71;96328.97;5020135;28;20052;-74
2021/09/02 10:47:59;;;;;;;8.85;4.43;;;;;;;21.07;52.13;96323.97;5018358;28;20049;-74
2021/09/02 10:50:27;;;;;;;6.70;4.50;;;;;;;20.68;49.94;96324.94;5027978;28;20080;-73
2021/09/02 10:53:16;;;;;;;6.32;3.78;;;;;;;20.60;51.30;96321.91;5022503;28;20774;-73
2021/09/02 10:55:47;;;;;;;7.45;4.18;;;;;;;20.70;50.41;96325.41;5030546;28;20045;-74
2021/09/02 10:58:45;;;;;;;24.13;4.25;;;;;;;20.89;50.25;96328.56;5012736;28;20049;-77
2021/09/02 11:01:23;;;;;;;7.22;4.45;;;;;;;20.97;51.24;96326.19;5028755;28;20057;-75
2021/09/02 11:03:50;;;;;;;7.68;4.50;;;;;;;20.92;50.21;96319.91;5021968;28;20495;-75
2021/09/02 11:06:16;;;;;;;7.85;4.78;;;;;;;21.24;50.49;96325.81;5028581;28;20046;-76
2021/09/02 11:08:42;;;;;;;10.73;4.43;;;;;;;22.27;50.40;96326.88;5030683;28;20068;-75
2021/09/02 11:11:18;;;;;;;6.55;4.38;;;;;;;22.41;48.19;96319.41;5023021;28;20052;-76
2021/09/02 11:13:45;;;;;;;7.63;4.47;;;;;;;23.27;45.62;96318.22;5013983;28;20072;-75
2021/09/02 11:16:14;;;;;;;6.32;3.97;;;;;;;23.41;43.71;96315.25;5022970;28;20785;-76
2021/09/02 11:18:46;;;;;;;8.50;4.40;;;;;;;22.54;47.32;96306.84;5026025;28;20060;-75
2021/09/02 11:21:19;;;;;;;6.45;4.50;;;;;;;22.70;45.70;96308.91;5025791;28;20075;-74
2021/09/02 11:23:53;;;;;;;6.60;4.22;;;;;;;23.54;44.44;96316.84;5024035;28;20494;-75
2021/09/02 11:26:32;;;;;;;8.70;4.43;;;;;;;22.99;43.62;96322.25;5026980;28;20041;-74
2021/09/02 11:28:58;;;;;;;7.93;4.40;;;;;;;23.70;43.35;96312.38;5025682;28;20052;-74
2021/09/02 11:31:24;;;;;;;6.85;4.60;;;;;;;23.56;44.40;96316.50;5021949;28;20041;-76
2021/09/02 11:33:51;;;;;;;5.97;3.95;;;;;;;23.96;43.47;96308.59;5028059;28;20046;-75